sensor_id;sensor_type;location;lat;lon;timestamp;P1;durP1;ratioP1;P2;durP2;ratioP2
60979;SDS011;46851;49.160;8.980;2023-11-21T00:00:14;4.97;;;1.17;;
60979;SDS011;46851;49.160;8.980;2023-11-21T00:02:41;4.28;;;0.98;;
60979;SDS011;46851;49.160;8.980;2023-11-21T00:05:10;1.60;;;0.93;;
60979;SDS011;46851;49.160;8.980;2023-11-21T00:07:39;2.17;;;0.90;;
60979;SDS011;46851;49.160;8.980;2023-11-21T00:10:05;6.25;;;1.15;;
60979;SDS011;46851;49.160;8.980;2023-11-21T00:12:31;3.25;;;1.05;;
60979;SDS011;46851;49.160;8.980;2023-11-21T00:14:58;3.97;;;1.10;;
60979;SDS011;46851;49.160;8.980;2023-11-21T00:17:24;2.78;;;0.93;;
60979;SDS011;46851;49.160;8.980;2023-11-21T00:19:53;4.72;;;1.10;;
60979;SDS011;46851;49.160;8.980;2023-11-21T00:22:19;7.45;;;1.20;;
60979;SDS011;46851;49.160;8.980;2023-11-21T00:24:45;2.80;;;1.08;;
60979;SDS011;46851;49.160;8.980;2023-11-21T00:27:14;4.03;;;1.10;;
60979;SDS011;46851;49.160;8.980;2023-11-21T00:29:43;6.05;;;1.05;;
60979;SDS011;46851;49.160;8.980;2023-11-21T00:32:09;9.77;;;1.13;;
60979;SDS011;46851;49.160;8.980;2023-11-21T00:34:38;2.10;;;0.98;;
60979;SDS011;46851;49.160;8.980;2023-11-21T00:37:05;3.38;;;0.80;;
60979;SDS011;46851;49.160;8.980;2023-11-21T00:39:33;2.33;;;0.88;;
60979;SDS011;46851;49.160;8.980;2023-11-21T00:42:00;3.25;;;1.00;;
60979;SDS011;46851;49.160;8.980;2023-11-21T00:44:29;4.20;;;1.30;;
60979;SDS011;46851;49.160;8.980;2023-11-21T00:46:55;1.42;;;0.85;;
60979;SDS011;46851;49.160;8.980;2023-11-21T00:49:21;2.85;;;1.00;;
60979;SDS011;46851;49.160;8.980;2023-11-21T00:51:47;3.22;;;0.98;;
60979;SDS011;46851;49.160;8.980;2023-11-21T00:54:13;5.72;;;1.23;;
60979;SDS011;46851;49.160;8.980;2023-11-21T00:56:42;3.30;;;1.15;;
60979;SDS011;46851;49.160;8.980;2023-11-21T00:59:08;2.63;;;0.88;;
60979;SDS011;46851;49.160;8.980;2023-11-21T01:01:35;4.32;;;1.00;;
60979;SDS011;46851;49.160;8.980;2023-11-21T01:04:02;1.30;;;0.75;;
60979;SDS011;46851;49.160;8.980;2023-11-21T01:06:28;6.10;;;1.13;;
60979;SDS011;46851;49.160;8.980;2023-11-21T01:08:55;2.17;;;0.80;;
60979;SDS011;46851;49.160;8.980;2023-11-21T01:11:21;2.58;;;0.80;;
60979;SDS011;46851;49.160;8.980;2023-11-21T01:13:47;4.43;;;1.17;;
60979;SDS011;46851;49.160;8.980;2023-11-21T01:16:13;3.78;;;1.00;;
60979;SDS011;46851;49.160;8.980;2023-11-21T01:18:39;2.35;;;0.90;;
60979;SDS011;46851;49.160;8.980;2023-11-21T01:21:05;5.25;;;0.80;;
60979;SDS011;46851;49.160;8.980;2023-11-21T01:23:33;2.00;;;0.90;;
60979;SDS011;46851;49.160;8.980;2023-11-21T01:25:59;3.83;;;1.08;;
60979;SDS011;46851;49.160;8.980;2023-11-21T01:28:25;5.35;;;0.93;;
60979;SDS011;46851;49.160;8.980;2023-11-21T01:30:54;3.50;;;1.10;;
60979;SDS011;46851;49.160;8.980;2023-11-21T01:33:24;5.82;;;1.17;;
60979;SDS011;46851;49.160;8.980;2023-11-21T01:35:50;3.45;;;1.10;;
60979;SDS011;46851;49.160;8.980;2023-11-21T01:38:19;2.35;;;1.08;;
60979;SDS011;46851;49.160;8.980;2023-11-21T01:40:45;4.38;;;1.10;;
60979;SDS011;46851;49.160;8.980;2023-11-21T01:43:11;3.08;;;0.90;;
60979;SDS011;46851;49.160;8.980;2023-11-21T01:45:37;4.25;;;0.70;;
60979;SDS011;46851;49.160;8.980;2023-11-21T01:48:04;2.72;;;0.90;;
60979;SDS011;46851;49.160;8.980;2023-11-21T01:50:32;2.35;;;1.10;;
60979;SDS011;46851;49.160;8.980;2023-11-21T01:52:58;1.60;;;1.00;;
60979;SDS011;46851;49.160;8.980;2023-11-21T01:55:25;2.30;;;0.90;;
60979;SDS011;46851;49.160;8.980;2023-11-21T01:57:52;5.40;;;0.95;;
60979;SDS011;46851;49.160;8.980;2023-11-21T02:00:18;3.80;;;0.90;;
60979;SDS011;46851;49.160;8.980;2023-11-21T02:02:45;6.55;;;1.45;;
60979;SDS011;46851;49.160;8.980;2023-11-21T02:05:15;4.05;;;1.08;;
60979;SDS011;46851;49.160;8.980;2023-11-21T02:07:43;4.03;;;1.00;;
60979;SDS011;46851;49.160;8.980;2023-11-21T02:10:09;1.17;;;0.75;;
60979;SDS011;46851;49.160;8.980;2023-11-21T02:12:39;7.03;;;1.13;;
60979;SDS011;46851;49.160;8.980;2023-11-21T02:15:08;6.63;;;1.15;;
60979;SDS011;46851;49.160;8.980;2023-11-21T02:17:42;3.15;;;0.90;;
60979;SDS011;46851;49.160;8.980;2023-11-21T02:20:09;5.40;;;1.02;;
60979;SDS011;46851;49.160;8.980;2023-11-21T02:22:40;1.27;;;1.17;;
60979;SDS011;46851;49.160;8.980;2023-11-21T02:25:10;4.95;;;1.63;;
60979;SDS011;46851;49.160;8.980;2023-11-21T02:27:36;2.88;;;0.90;;
60979;SDS011;46851;49.160;8.980;2023-11-21T02:30:03;4.55;;;0.93;;
60979;SDS011;46851;49.160;8.980;2023-11-21T02:32:30;6.25;;;1.30;;
60979;SDS011;46851;49.160;8.980;2023-11-21T02:34:56;3.45;;;1.10;;
60979;SDS011;46851;49.160;8.980;2023-11-21T02:37:26;3.30;;;1.48;;
60979;SDS011;46851;49.160;8.980;2023-11-21T02:39:52;3.50;;;1.10;;
60979;SDS011;46851;49.160;8.980;2023-11-21T02:42:18;5.22;;;1.10;;
60979;SDS011;46851;49.160;8.980;2023-11-21T02:44:44;4.55;;;1.20;;
60979;SDS011;46851;49.160;8.980;2023-11-21T02:47:10;4.18;;;1.20;;
60979;SDS011;46851;49.160;8.980;2023-11-21T02:49:36;3.97;;;0.90;;
60979;SDS011;46851;49.160;8.980;2023-11-21T02:52:02;2.70;;;1.05;;
60979;SDS011;46851;49.160;8.980;2023-11-21T02:54:28;4.55;;;0.98;;
60979;SDS011;46851;49.160;8.980;2023-11-21T02:56:54;4.20;;;1.00;;
60979;SDS011;46851;49.160;8.980;2023-11-21T02:59:23;4.07;;;1.00;;
60979;SDS011;46851;49.160;8.980;2023-11-21T03:01:49;5.05;;;1.15;;
60979;SDS011;46851;49.160;8.980;2023-11-21T03:04:18;3.55;;;1.65;;
60979;SDS011;46851;49.160;8.980;2023-11-21T03:06:46;3.45;;;1.13;;
60979;SDS011;46851;49.160;8.980;2023-11-21T03:09:13;3.88;;;1.10;;
60979;SDS011;46851;49.160;8.980;2023-11-21T03:11:39;4.90;;;1.13;;
60979;SDS011;46851;49.160;8.980;2023-11-21T03:14:08;7.72;;;1.05;;
60979;SDS011;46851;49.160;8.980;2023-11-21T03:16:34;5.03;;;1.02;;
60979;SDS011;46851;49.160;8.980;2023-11-21T03:19:00;2.88;;;1.00;;
60979;SDS011;46851;49.160;8.980;2023-11-21T03:21:26;4.70;;;1.00;;
60979;SDS011;46851;49.160;8.980;2023-11-21T03:23:52;2.97;;;1.13;;
60979;SDS011;46851;49.160;8.980;2023-11-21T03:26:18;3.45;;;1.35;;
60979;SDS011;46851;49.160;8.980;2023-11-21T03:28:44;3.30;;;1.20;;
60979;SDS011;46851;49.160;8.980;2023-11-21T03:31:11;5.85;;;1.30;;
60979;SDS011;46851;49.160;8.980;2023-11-21T03:33:37;5.85;;;1.15;;
60979;SDS011;46851;49.160;8.980;2023-11-21T03:36:03;2.83;;;1.08;;
60979;SDS011;46851;49.160;8.980;2023-11-21T03:38:29;2.67;;;1.25;;
60979;SDS011;46851;49.160;8.980;2023-11-21T03:40:55;4.93;;;1.00;;
60979;SDS011;46851;49.160;8.980;2023-11-21T03:43:21;4.20;;;1.25;;
60979;SDS011;46851;49.160;8.980;2023-11-21T03:45:47;2.30;;;1.30;;
60979;SDS011;46851;49.160;8.980;2023-11-21T03:48:13;3.78;;;1.08;;
60979;SDS011;46851;49.160;8.980;2023-11-21T03:50:39;6.22;;;1.17;;
60979;SDS011;46851;49.160;8.980;2023-11-21T03:53:05;1.90;;;1.08;;
60979;SDS011;46851;49.160;8.980;2023-11-21T03:55:31;3.70;;;1.10;;
60979;SDS011;46851;49.160;8.980;2023-11-21T03:57:58;3.60;;;1.35;;
60979;SDS011;46851;49.160;8.980;2023-11-21T04:00:24;3.55;;;1.20;;
60979;SDS011;46851;49.160;8.980;2023-11-21T04:02:53;3.35;;;1.10;;
60979;SDS011;46851;49.160;8.980;2023-11-21T04:05:20;6.18;;;1.60;;
60979;SDS011;46851;49.160;8.980;2023-11-21T04:07:48;3.88;;;1.30;;
60979;SDS011;46851;49.160;8.980;2023-11-21T04:10:15;1.75;;;1.27;;
60979;SDS011;46851;49.160;8.980;2023-11-21T04:12:41;1.48;;;1.02;;
60979;SDS011;46851;49.160;8.980;2023-11-21T04:15:10;4.78;;;1.17;;
60979;SDS011;46851;49.160;8.980;2023-11-21T04:17:37;4.22;;;1.42;;
60979;SDS011;46851;49.160;8.980;2023-11-21T04:20:04;1.88;;;1.10;;
60979;SDS011;46851;49.160;8.980;2023-11-21T04:22:33;4.55;;;1.60;;
60979;SDS011;46851;49.160;8.980;2023-11-21T04:25:00;3.08;;;1.63;;
60979;SDS011;46851;49.160;8.980;2023-11-21T04:27:26;3.30;;;1.27;;
60979;SDS011;46851;49.160;8.980;2023-11-21T04:29:52;2.90;;;1.15;;
60979;SDS011;46851;49.160;8.980;2023-11-21T04:32:18;2.95;;;1.38;;
60979;SDS011;46851;49.160;8.980;2023-11-21T04:34:44;3.15;;;1.30;;
60979;SDS011;46851;49.160;8.980;2023-11-21T04:37:10;3.35;;;1.25;;
60979;SDS011;46851;49.160;8.980;2023-11-21T04:39:37;2.88;;;1.92;;
60979;SDS011;46851;49.160;8.980;2023-11-21T04:42:03;3.97;;;1.48;;
60979;SDS011;46851;49.160;8.980;2023-11-21T04:44:29;2.60;;;1.40;;
60979;SDS011;46851;49.160;8.980;2023-11-21T04:46:55;3.75;;;1.30;;
60979;SDS011;46851;49.160;8.980;2023-11-21T04:49:21;4.03;;;1.02;;
60979;SDS011;46851;49.160;8.980;2023-11-21T04:51:47;4.28;;;1.65;;
60979;SDS011;46851;49.160;8.980;2023-11-21T04:54:13;3.58;;;1.30;;
60979;SDS011;46851;49.160;8.980;2023-11-21T04:56:39;2.25;;;1.40;;
60979;SDS011;46851;49.160;8.980;2023-11-21T04:59:05;2.97;;;1.30;;
60979;SDS011;46851;49.160;8.980;2023-11-21T05:01:31;3.67;;;1.73;;
60979;SDS011;46851;49.160;8.980;2023-11-21T05:03:57;3.95;;;1.42;;
60979;SDS011;46851;49.160;8.980;2023-11-21T05:06:23;5.22;;;1.73;;
60979;SDS011;46851;49.160;8.980;2023-11-21T05:08:49;6.68;;;1.90;;
60979;SDS011;46851;49.160;8.980;2023-11-21T05:11:25;4.65;;;2.00;;
60979;SDS011;46851;49.160;8.980;2023-11-21T05:13:51;3.83;;;1.80;;
60979;SDS011;46851;49.160;8.980;2023-11-21T05:16:18;4.75;;;1.90;;
60979;SDS011;46851;49.160;8.980;2023-11-21T05:18:44;7.50;;;1.70;;
60979;SDS011;46851;49.160;8.980;2023-11-21T05:21:10;6.40;;;1.83;;
60979;SDS011;46851;49.160;8.980;2023-11-21T05:23:36;6.20;;;1.70;;
60979;SDS011;46851;49.160;8.980;2023-11-21T05:26:02;3.70;;;1.63;;
60979;SDS011;46851;49.160;8.980;2023-11-21T05:28:29;5.82;;;1.90;;
60979;SDS011;46851;49.160;8.980;2023-11-21T05:30:55;7.50;;;2.10;;
60979;SDS011;46851;49.160;8.980;2023-11-21T05:33:21;8.05;;;1.67;;
60979;SDS011;46851;49.160;8.980;2023-11-21T05:35:47;3.95;;;1.85;;
60979;SDS011;46851;49.160;8.980;2023-11-21T05:38:14;7.55;;;2.58;;
60979;SDS011;46851;49.160;8.980;2023-11-21T05:40:40;4.45;;;2.20;;
60979;SDS011;46851;49.160;8.980;2023-11-21T05:43:06;6.50;;;3.40;;
60979;SDS011;46851;49.160;8.980;2023-11-21T05:45:32;2.80;;;1.92;;
60979;SDS011;46851;49.160;8.980;2023-11-21T05:47:58;5.82;;;2.38;;
60979;SDS011;46851;49.160;8.980;2023-11-21T05:50:24;3.47;;;2.40;;
60979;SDS011;46851;49.160;8.980;2023-11-21T05:52:50;9.85;;;2.20;;
60979;SDS011;46851;49.160;8.980;2023-11-21T05:55:16;3.05;;;2.00;;
60979;SDS011;46851;49.160;8.980;2023-11-21T05:57:43;10.23;;;2.97;;
60979;SDS011;46851;49.160;8.980;2023-11-21T06:00:10;3.97;;;2.35;;
60979;SDS011;46851;49.160;8.980;2023-11-21T06:02:39;4.65;;;2.40;;
60979;SDS011;46851;49.160;8.980;2023-11-21T06:05:06;4.65;;;2.58;;
60979;SDS011;46851;49.160;8.980;2023-11-21T06:07:36;6.95;;;2.95;;
60979;SDS011;46851;49.160;8.980;2023-11-21T06:10:03;6.93;;;3.38;;
60979;SDS011;46851;49.160;8.980;2023-11-21T06:12:37;4.00;;;2.67;;
60979;SDS011;46851;49.160;8.980;2023-11-21T06:15:05;16.40;;;6.93;;
60979;SDS011;46851;49.160;8.980;2023-11-21T06:17:36;4.70;;;2.80;;
60979;SDS011;46851;49.160;8.980;2023-11-21T06:20:04;5.63;;;3.08;;
60979;SDS011;46851;49.160;8.980;2023-11-21T06:22:43;4.10;;;2.92;;
60979;SDS011;46851;49.160;8.980;2023-11-21T06:25:09;8.52;;;4.40;;
60979;SDS011;46851;49.160;8.980;2023-11-21T06:27:39;8.20;;;4.10;;
60979;SDS011;46851;49.160;8.980;2023-11-21T06:30:06;7.03;;;3.45;;
60979;SDS011;46851;49.160;8.980;2023-11-21T06:32:34;6.30;;;2.90;;
60979;SDS011;46851;49.160;8.980;2023-11-21T06:35:01;7.38;;;3.20;;
60979;SDS011;46851;49.160;8.980;2023-11-21T06:37:29;7.40;;;3.45;;
60979;SDS011;46851;49.160;8.980;2023-11-21T06:39:55;9.38;;;4.22;;
60979;SDS011;46851;49.160;8.980;2023-11-21T06:42:21;6.03;;;3.78;;
60979;SDS011;46851;49.160;8.980;2023-11-21T06:44:49;6.63;;;4.55;;
60979;SDS011;46851;49.160;8.980;2023-11-21T06:47:17;8.98;;;5.20;;
60979;SDS011;46851;49.160;8.980;2023-11-21T06:49:43;8.13;;;4.30;;
60979;SDS011;46851;49.160;8.980;2023-11-21T06:52:09;9.27;;;5.20;;
60979;SDS011;46851;49.160;8.980;2023-11-21T06:54:36;8.02;;;4.57;;
60979;SDS011;46851;49.160;8.980;2023-11-21T06:57:02;6.68;;;4.18;;
60979;SDS011;46851;49.160;8.980;2023-11-21T06:59:31;8.23;;;4.53;;
60979;SDS011;46851;49.160;8.980;2023-11-21T07:01:57;7.38;;;4.07;;
60979;SDS011;46851;49.160;8.980;2023-11-21T07:04:23;9.80;;;4.03;;
60979;SDS011;46851;49.160;8.980;2023-11-21T07:06:50;9.13;;;4.70;;
60979;SDS011;46851;49.160;8.980;2023-11-21T07:09:16;11.10;;;5.38;;
60979;SDS011;46851;49.160;8.980;2023-11-21T07:11:42;5.57;;;4.38;;
60979;SDS011;46851;49.160;8.980;2023-11-21T07:14:08;8.90;;;4.93;;
60979;SDS011;46851;49.160;8.980;2023-11-21T07:16:35;10.18;;;5.82;;
60979;SDS011;46851;49.160;8.980;2023-11-21T07:19:03;8.85;;;4.80;;
60979;SDS011;46851;49.160;8.980;2023-11-21T07:21:31;9.93;;;5.55;;
60979;SDS011;46851;49.160;8.980;2023-11-21T07:23:58;12.90;;;6.05;;
60979;SDS011;46851;49.160;8.980;2023-11-21T07:26:24;12.18;;;5.13;;
60979;SDS011;46851;49.160;8.980;2023-11-21T07:28:51;7.93;;;4.40;;
60979;SDS011;46851;49.160;8.980;2023-11-21T07:31:17;9.07;;;4.70;;
60979;SDS011;46851;49.160;8.980;2023-11-21T07:33:44;8.98;;;4.70;;
60979;SDS011;46851;49.160;8.980;2023-11-21T07:36:12;7.28;;;4.32;;
60979;SDS011;46851;49.160;8.980;2023-11-21T07:38:38;9.23;;;5.63;;
60979;SDS011;46851;49.160;8.980;2023-11-21T07:41:04;9.80;;;4.03;;
60979;SDS011;46851;49.160;8.980;2023-11-21T07:43:36;5.78;;;3.70;;
60979;SDS011;46851;49.160;8.980;2023-11-21T07:46:08;5.75;;;3.70;;
60979;SDS011;46851;49.160;8.980;2023-11-21T07:48:34;7.43;;;3.95;;
60979;SDS011;46851;49.160;8.980;2023-11-21T07:51:01;9.82;;;5.30;;
60979;SDS011;46851;49.160;8.980;2023-11-21T07:53:28;7.82;;;4.80;;
60979;SDS011;46851;49.160;8.980;2023-11-21T07:55:58;12.63;;;4.22;;
60979;SDS011;46851;49.160;8.980;2023-11-21T07:58:24;8.02;;;3.85;;
60979;SDS011;46851;49.160;8.980;2023-11-21T08:00:50;6.68;;;3.75;;
60979;SDS011;46851;49.160;8.980;2023-11-21T08:03:17;10.07;;;4.20;;
60979;SDS011;46851;49.160;8.980;2023-11-21T08:05:42;5.35;;;4.20;;
60979;SDS011;46851;49.160;8.980;2023-11-21T08:08:09;5.65;;;4.32;;
60979;SDS011;46851;49.160;8.980;2023-11-21T08:10:35;10.27;;;4.57;;
60979;SDS011;46851;49.160;8.980;2023-11-21T08:13:01;5.15;;;3.70;;
60979;SDS011;46851;49.160;8.980;2023-11-21T08:15:27;8.02;;;4.65;;
60979;SDS011;46851;49.160;8.980;2023-11-21T08:17:54;8.43;;;4.20;;
60979;SDS011;46851;49.160;8.980;2023-11-21T08:20:19;6.13;;;3.38;;
60979;SDS011;46851;49.160;8.980;2023-11-21T08:22:47;6.45;;;2.90;;
60979;SDS011;46851;49.160;8.980;2023-11-21T08:25:13;5.75;;;3.08;;
60979;SDS011;46851;49.160;8.980;2023-11-21T08:27:39;4.75;;;2.80;;
60979;SDS011;46851;49.160;8.980;2023-11-21T08:30:05;5.70;;;3.20;;
60979;SDS011;46851;49.160;8.980;2023-11-21T08:32:32;5.55;;;3.42;;
60979;SDS011;46851;49.160;8.980;2023-11-21T08:34:58;4.20;;;3.35;;
60979;SDS011;46851;49.160;8.980;2023-11-21T08:37:24;6.55;;;3.13;;
60979;SDS011;46851;49.160;8.980;2023-11-21T08:39:52;5.55;;;3.63;;
60979;SDS011;46851;49.160;8.980;2023-11-21T08:42:18;5.13;;;3.40;;
60979;SDS011;46851;49.160;8.980;2023-11-21T08:44:44;7.18;;;3.60;;
60979;SDS011;46851;49.160;8.980;2023-11-21T08:47:11;5.35;;;3.53;;
60979;SDS011;46851;49.160;8.980;2023-11-21T08:49:37;8.73;;;4.00;;
60979;SDS011;46851;49.160;8.980;2023-11-21T08:52:03;7.82;;;3.97;;
60979;SDS011;46851;49.160;8.980;2023-11-21T08:54:30;5.20;;;3.33;;
60979;SDS011;46851;49.160;8.980;2023-11-21T08:56:56;6.53;;;3.30;;
60979;SDS011;46851;49.160;8.980;2023-11-21T08:59:25;7.57;;;4.13;;
60979;SDS011;46851;49.160;8.980;2023-11-21T09:01:51;7.97;;;4.25;;
60979;SDS011;46851;49.160;8.980;2023-11-21T09:04:17;5.85;;;4.10;;
60979;SDS011;46851;49.160;8.980;2023-11-21T09:06:43;8.18;;;4.18;;
60979;SDS011;46851;49.160;8.980;2023-11-21T09:09:09;8.68;;;3.75;;
60979;SDS011;46851;49.160;8.980;2023-11-21T09:11:36;6.43;;;3.60;;
60979;SDS011;46851;49.160;8.980;2023-11-21T09:14:02;11.15;;;4.75;;
60979;SDS011;46851;49.160;8.980;2023-11-21T09:16:28;6.65;;;4.22;;
60979;SDS011;46851;49.160;8.980;2023-11-21T09:18:55;6.55;;;3.80;;
60979;SDS011;46851;49.160;8.980;2023-11-21T09:21:21;6.05;;;4.10;;
60979;SDS011;46851;49.160;8.980;2023-11-21T09:23:48;6.07;;;3.72;;
60979;SDS011;46851;49.160;8.980;2023-11-21T09:26:14;4.80;;;3.33;;
60979;SDS011;46851;49.160;8.980;2023-11-21T09:28:43;6.45;;;3.60;;
60979;SDS011;46851;49.160;8.980;2023-11-21T09:31:18;6.45;;;3.20;;
60979;SDS011;46851;49.160;8.980;2023-11-21T09:33:47;10.05;;;3.33;;
60979;SDS011;46851;49.160;8.980;2023-11-21T09:36:13;7.85;;;3.30;;
60979;SDS011;46851;49.160;8.980;2023-11-21T09:38:40;14.38;;;3.53;;
60979;SDS011;46851;49.160;8.980;2023-11-21T09:41:07;9.75;;;3.10;;
60979;SDS011;46851;49.160;8.980;2023-11-21T09:43:37;5.18;;;2.72;;
60979;SDS011;46851;49.160;8.980;2023-11-21T09:46:04;3.10;;;2.80;;
60979;SDS011;46851;49.160;8.980;2023-11-21T09:48:35;6.28;;;2.40;;
60979;SDS011;46851;49.160;8.980;2023-11-21T09:51:06;4.57;;;2.63;;
60979;SDS011;46851;49.160;8.980;2023-11-21T09:53:33;4.95;;;2.22;;
60979;SDS011;46851;49.160;8.980;2023-11-21T09:56:00;3.55;;;2.38;;
60979;SDS011;46851;49.160;8.980;2023-11-21T09:58:28;9.68;;;2.80;;
60979;SDS011;46851;49.160;8.980;2023-11-21T10:00:55;5.85;;;2.30;;
60979;SDS011;46851;49.160;8.980;2023-11-21T10:03:24;4.60;;;2.65;;
60979;SDS011;46851;49.160;8.980;2023-11-21T10:05:51;5.78;;;3.28;;
60979;SDS011;46851;49.160;8.980;2023-11-21T10:08:19;11.00;;;3.15;;
60979;SDS011;46851;49.160;8.980;2023-11-21T10:10:46;7.10;;;3.65;;
60979;SDS011;46851;49.160;8.980;2023-11-21T10:13:15;8.95;;;3.53;;
60979;SDS011;46851;49.160;8.980;2023-11-21T10:15:41;8.00;;;5.15;;
60979;SDS011;46851;49.160;8.980;2023-11-21T10:18:13;6.72;;;3.60;;
60979;SDS011;46851;49.160;8.980;2023-11-21T10:20:44;12.98;;;4.10;;
60979;SDS011;46851;49.160;8.980;2023-11-21T10:23:17;10.38;;;3.97;;
60979;SDS011;46851;49.160;8.980;2023-11-21T10:25:43;13.52;;;4.13;;
60979;SDS011;46851;49.160;8.980;2023-11-21T10:28:09;10.93;;;4.53;;
60979;SDS011;46851;49.160;8.980;2023-11-21T10:30:36;8.77;;;4.38;;
60979;SDS011;46851;49.160;8.980;2023-11-21T10:33:04;9.75;;;5.47;;
60979;SDS011;46851;49.160;8.980;2023-11-21T10:38:05;9.00;;;4.90;;
60979;SDS011;46851;49.160;8.980;2023-11-21T10:40:33;6.80;;;5.10;;
60979;SDS011;46851;49.160;8.980;2023-11-21T10:43:09;9.05;;;5.47;;
60979;SDS011;46851;49.160;8.980;2023-11-21T10:45:36;7.53;;;5.38;;
60979;SDS011;46851;49.160;8.980;2023-11-21T10:48:04;8.45;;;5.07;;
60979;SDS011;46851;49.160;8.980;2023-11-21T10:50:32;8.93;;;5.60;;
60979;SDS011;46851;49.160;8.980;2023-11-21T10:53:00;9.63;;;5.72;;
60979;SDS011;46851;49.160;8.980;2023-11-21T10:55:27;6.13;;;4.25;;
60979;SDS011;46851;49.160;8.980;2023-11-21T10:57:53;3.10;;;1.23;;
60979;SDS011;46851;49.160;8.980;2023-11-21T11:00:20;0.77;;;0.70;;
60979;SDS011;46851;49.160;8.980;2023-11-21T11:02:51;2.08;;;0.90;;
60979;SDS011;46851;49.160;8.980;2023-11-21T11:05:19;3.20;;;0.77;;
60979;SDS011;46851;49.160;8.980;2023-11-21T11:07:47;0.57;;;0.57;;
60979;SDS011;46851;49.160;8.980;2023-11-21T11:10:14;1.50;;;0.60;;
60979;SDS011;46851;49.160;8.980;2023-11-21T11:12:40;1.08;;;0.85;;
60979;SDS011;46851;49.160;8.980;2023-11-21T11:15:07;2.05;;;0.65;;
60979;SDS011;46851;49.160;8.980;2023-11-21T11:17:37;0.70;;;0.70;;
60979;SDS011;46851;49.160;8.980;2023-11-21T11:20:04;0.60;;;0.60;;
60979;SDS011;46851;49.160;8.980;2023-11-21T11:22:36;1.25;;;0.85;;
60979;SDS011;46851;49.160;8.980;2023-11-21T11:35:26;3.38;;;1.23;;
60979;SDS011;46851;49.160;8.980;2023-11-21T11:37:54;2.17;;;1.00;;
60979;SDS011;46851;49.160;8.980;2023-11-21T11:40:20;2.60;;;1.23;;
60979;SDS011;46851;49.160;8.980;2023-11-21T11:42:58;2.92;;;1.63;;
60979;SDS011;46851;49.160;8.980;2023-11-21T11:45:25;1.42;;;1.00;;
60979;SDS011;46851;49.160;8.980;2023-11-21T11:47:58;1.30;;;1.20;;
60979;SDS011;46851;49.160;8.980;2023-11-21T11:50:25;1.80;;;0.90;;
60979;SDS011;46851;49.160;8.980;2023-11-21T11:52:55;1.95;;;1.15;;
60979;SDS011;46851;49.160;8.980;2023-11-21T11:55:23;1.63;;;1.10;;
60979;SDS011;46851;49.160;8.980;2023-11-21T11:57:53;1.65;;;1.20;;
60979;SDS011;46851;49.160;8.980;2023-11-21T12:02:54;1.20;;;1.02;;
60979;SDS011;46851;49.160;8.980;2023-11-21T12:05:24;0.80;;;0.80;;
60979;SDS011;46851;49.160;8.980;2023-11-21T12:10:20;2.05;;;1.10;;
60979;SDS011;46851;49.160;8.980;2023-11-21T12:15:39;3.50;;;3.20;;
60979;SDS011;46851;49.160;8.980;2023-11-21T12:18:06;4.15;;;1.48;;
60979;SDS011;46851;49.160;8.980;2023-11-21T12:20:32;1.20;;;1.10;;
60979;SDS011;46851;49.160;8.980;2023-11-21T12:23:03;0.90;;;0.90;;
60979;SDS011;46851;49.160;8.980;2023-11-21T12:25:30;1.10;;;0.90;;
60979;SDS011;46851;49.160;8.980;2023-11-21T12:27:58;0.75;;;0.75;;
60979;SDS011;46851;49.160;8.980;2023-11-21T12:30:25;1.15;;;0.82;;
60979;SDS011;46851;49.160;8.980;2023-11-21T12:32:56;1.20;;;1.00;;
60979;SDS011;46851;49.160;8.980;2023-11-21T12:35:26;1.98;;;1.02;;
60979;SDS011;46851;49.160;8.980;2023-11-21T12:37:53;2.25;;;1.20;;
60979;SDS011;46851;49.160;8.980;2023-11-21T12:40:20;2.47;;;1.00;;
60979;SDS011;46851;49.160;8.980;2023-11-21T12:42:50;1.65;;;1.00;;
60979;SDS011;46851;49.160;8.980;2023-11-21T12:47:54;2.03;;;1.48;;
60979;SDS011;46851;49.160;8.980;2023-11-21T12:50:22;1.42;;;1.30;;
60979;SDS011;46851;49.160;8.980;2023-11-21T12:52:49;1.92;;;1.30;;
60979;SDS011;46851;49.160;8.980;2023-11-21T12:55:16;1.30;;;1.20;;
60979;SDS011;46851;49.160;8.980;2023-11-21T12:57:43;2.72;;;1.90;;
60979;SDS011;46851;49.160;8.980;2023-11-21T13:00:09;5.80;;;1.90;;
60979;SDS011;46851;49.160;8.980;2023-11-21T13:02:40;4.72;;;1.73;;
60979;SDS011;46851;49.160;8.980;2023-11-21T13:05:08;2.20;;;1.65;;
60979;SDS011;46851;49.160;8.980;2023-11-21T13:07:46;3.00;;;1.90;;
60979;SDS011;46851;49.160;8.980;2023-11-21T13:10:12;2.10;;;1.73;;
60979;SDS011;46851;49.160;8.980;2023-11-21T13:12:45;2.95;;;1.50;;
60979;SDS011;46851;49.160;8.980;2023-11-21T13:15:16;2.65;;;1.75;;
60979;SDS011;46851;49.160;8.980;2023-11-21T13:17:46;8.63;;;2.10;;
60979;SDS011;46851;49.160;8.980;2023-11-21T13:20:15;2.92;;;2.17;;
60979;SDS011;46851;49.160;8.980;2023-11-21T13:25:15;4.78;;;2.20;;
60979;SDS011;46851;49.160;8.980;2023-11-21T13:27:43;2.22;;;1.95;;
60979;SDS011;46851;49.160;8.980;2023-11-21T13:30:18;4.80;;;2.13;;
60979;SDS011;46851;49.160;8.980;2023-11-21T13:32:48;5.70;;;2.00;;
60979;SDS011;46851;49.160;8.980;2023-11-21T13:35:16;2.50;;;2.30;;
60979;SDS011;46851;49.160;8.980;2023-11-21T13:37:51;4.65;;;2.30;;
60979;SDS011;46851;49.160;8.980;2023-11-21T13:40:21;2.08;;;1.88;;
60979;SDS011;46851;49.160;8.980;2023-11-21T13:42:53;3.13;;;2.15;;
60979;SDS011;46851;49.160;8.980;2023-11-21T13:45:20;3.20;;;2.20;;
60979;SDS011;46851;49.160;8.980;2023-11-21T13:47:48;2.63;;;1.90;;
60979;SDS011;46851;49.160;8.980;2023-11-21T13:50:16;2.88;;;2.05;;
60979;SDS011;46851;49.160;8.980;2023-11-21T13:52:49;2.78;;;2.17;;
60979;SDS011;46851;49.160;8.980;2023-11-21T13:55:19;3.92;;;2.97;;
60979;SDS011;46851;49.160;8.980;2023-11-21T13:57:47;3.63;;;2.20;;
60979;SDS011;46851;49.160;8.980;2023-11-21T14:00:17;3.30;;;2.22;;
60979;SDS011;46851;49.160;8.980;2023-11-21T14:03:02;3.38;;;2.50;;
60979;SDS011;46851;49.160;8.980;2023-11-21T14:05:34;2.70;;;1.90;;
60979;SDS011;46851;49.160;8.980;2023-11-21T14:08:00;4.57;;;2.30;;
60979;SDS011;46851;49.160;8.980;2023-11-21T14:10:32;3.58;;;2.28;;
60979;SDS011;46851;49.160;8.980;2023-11-21T14:13:05;3.05;;;2.08;;
60979;SDS011;46851;49.160;8.980;2023-11-21T14:15:31;3.88;;;2.10;;
60979;SDS011;46851;49.160;8.980;2023-11-21T14:18:01;5.68;;;2.60;;
60979;SDS011;46851;49.160;8.980;2023-11-21T14:20:31;6.00;;;3.55;;
60979;SDS011;46851;49.160;8.980;2023-11-21T14:22:58;4.40;;;2.30;;
60979;SDS011;46851;49.160;8.980;2023-11-21T14:25:27;4.70;;;2.65;;
60979;SDS011;46851;49.160;8.980;2023-11-21T14:27:53;2.92;;;2.30;;
60979;SDS011;46851;49.160;8.980;2023-11-21T14:30:19;2.88;;;2.00;;
60979;SDS011;46851;49.160;8.980;2023-11-21T14:32:50;3.10;;;2.28;;
60979;SDS011;46851;49.160;8.980;2023-11-21T14:35:16;3.80;;;2.37;;
60979;SDS011;46851;49.160;8.980;2023-11-21T14:37:42;4.78;;;2.40;;
60979;SDS011;46851;49.160;8.980;2023-11-21T14:40:09;3.15;;;2.08;;
60979;SDS011;46851;49.160;8.980;2023-11-21T14:42:35;2.67;;;1.90;;
60979;SDS011;46851;49.160;8.980;2023-11-21T14:45:04;3.63;;;2.03;;
60979;SDS011;46851;49.160;8.980;2023-11-21T14:47:32;4.38;;;2.10;;
60979;SDS011;46851;49.160;8.980;2023-11-21T14:50:00;2.78;;;2.10;;
60979;SDS011;46851;49.160;8.980;2023-11-21T14:52:40;2.83;;;1.92;;
60979;SDS011;46851;49.160;8.980;2023-11-21T14:55:20;3.38;;;1.92;;
60979;SDS011;46851;49.160;8.980;2023-11-21T14:57:56;4.30;;;1.75;;
60979;SDS011;46851;49.160;8.980;2023-11-21T15:00:27;5.93;;;1.85;;
60979;SDS011;46851;49.160;8.980;2023-11-21T15:02:59;2.13;;;1.90;;
60979;SDS011;46851;49.160;8.980;2023-11-21T15:05:25;2.22;;;1.67;;
60979;SDS011;46851;49.160;8.980;2023-11-21T15:07:53;2.17;;;1.70;;
60979;SDS011;46851;49.160;8.980;2023-11-21T15:10:21;3.42;;;1.90;;
60979;SDS011;46851;49.160;8.980;2023-11-21T15:13:06;2.38;;;1.88;;
60979;SDS011;46851;49.160;8.980;2023-11-21T15:15:36;3.47;;;1.80;;